createdAt,value
2022-11-25T00:01:18.861Z,9.74
2022-11-25T00:03:46.665Z,9.85
2022-11-25T00:06:19.281Z,9.72
2022-11-25T00:08:47.904Z,9.89
2022-11-25T00:11:14.537Z,9.86
2022-11-25T00:13:41.788Z,9.77
2022-11-25T00:16:10.783Z,9.70
2022-11-25T00:18:37.416Z,9.87
2022-11-25T00:21:08.715Z,9.78
2022-11-25T00:23:35.902Z,9.66
2022-11-25T00:26:10.035Z,9.89
2022-11-25T00:28:38.543Z,9.98
2022-11-25T00:31:11.184Z,9.74
2022-11-25T00:33:38.296Z,9.70
2022-11-25T00:36:06.105Z,9.85
2022-11-25T00:38:32.554Z,9.81
2022-11-25T00:41:17.669Z,9.85
2022-11-25T00:44:02.778Z,9.82
2022-11-25T00:46:29.191Z,9.74
2022-11-25T00:48:55.621Z,9.86
2022-11-25T00:51:22.034Z,9.90
2022-11-25T00:53:48.519Z,9.99
2022-11-25T00:56:15.233Z,10.15
2022-11-25T00:58:43.165Z,10.06
2022-11-25T01:01:10.411Z,10.08
2022-11-25T01:03:37.398Z,10.12
2022-11-25T01:06:08.842Z,10.04
2022-11-25T01:08:36.588Z,9.99
2022-11-25T01:11:09.147Z,10.00
2022-11-25T01:13:35.563Z,9.85
2022-11-25T01:16:03.649Z,9.93
2022-11-25T01:18:30.743Z,9.92
2022-11-25T01:21:18.383Z,9.91
2022-11-25T01:23:45.342Z,9.94
2022-11-25T01:26:18.845Z,9.92
2022-11-25T01:28:45.632Z,9.91
2022-11-25T01:31:19.415Z,9.87
2022-11-25T01:33:47.023Z,9.90
2022-11-25T01:36:16.382Z,9.84
2022-11-25T01:38:43.637Z,9.71
2022-11-25T01:41:12.524Z,9.75
2022-11-25T01:43:39.400Z,9.88
2022-11-25T01:46:22.187Z,9.81
2022-11-25T01:48:55.025Z,9.73
2022-11-25T01:51:28.655Z,9.82
2022-11-25T01:53:58.221Z,9.75
2022-11-25T01:56:26.381Z,9.77
2022-11-25T01:58:53.013Z,9.79
2022-11-25T02:01:21.633Z,9.85
2022-11-25T02:03:51.056Z,9.89
2022-11-25T02:06:24.780Z,9.88
2022-11-25T02:08:54.071Z,9.79
2022-11-25T02:11:21.241Z,9.78
2022-11-25T02:13:49.270Z,9.80
2022-11-25T02:16:15.828Z,9.81
2022-11-25T02:18:42.475Z,9.86
2022-11-25T02:21:09.138Z,9.76
2022-11-25T02:23:53.765Z,9.78
2022-11-25T02:26:20.904Z,9.82
2022-11-25T02:28:47.429Z,9.84
2022-11-25T02:31:20.169Z,9.85
2022-11-25T02:33:46.628Z,9.98
2022-11-25T02:36:16.092Z,9.89
2022-11-25T02:38:44.316Z,9.89
2022-11-25T02:41:13.729Z,9.90
2022-11-25T02:43:41.224Z,9.93
2022-11-25T02:46:17.420Z,9.82
2022-11-25T02:49:08.019Z,9.87
2022-11-25T02:51:34.045Z,9.96
2022-11-25T02:54:01.524Z,9.95
2022-11-25T02:56:30.497Z,9.96
2022-11-25T02:58:57.020Z,9.95
2022-11-25T03:01:24.008Z,9.94
2022-11-25T03:03:51.616Z,9.91
2022-11-25T03:06:18.021Z,9.93
2022-11-25T03:08:44.650Z,10.01
2022-11-25T03:11:11.147Z,10.04
2022-11-25T03:13:37.543Z,10.15
2022-11-25T03:16:04.332Z,10.06
2022-11-25T03:18:30.801Z,10.05
2022-11-25T03:20:57.356Z,10.13
2022-11-25T03:23:24.550Z,10.22
2022-11-25T03:25:51.159Z,10.26
2022-11-25T03:28:17.586Z,10.29
2022-11-25T03:30:44.061Z,10.52
2022-11-25T03:33:10.474Z,10.31
2022-11-25T03:35:36.911Z,10.29
2022-11-25T03:38:03.443Z,10.34
2022-11-25T03:40:29.884Z,10.38
2022-11-25T03:42:56.359Z,10.50
2022-11-25T03:45:22.761Z,10.52
2022-11-25T03:47:49.153Z,10.59
2022-11-25T03:50:16.284Z,10.68
2022-11-25T03:52:42.893Z,10.82
2022-11-25T03:55:10.033Z,10.76
2022-11-25T03:57:36.485Z,10.84
2022-11-25T04:00:04.447Z,10.91
2022-11-25T04:02:30.897Z,10.99
2022-11-25T04:04:57.442Z,10.97
2022-11-25T04:07:23.905Z,10.90
2022-11-25T04:09:50.447Z,11.04
2022-11-25T04:12:35.446Z,11.16
2022-11-25T04:15:01.840Z,11.07
2022-11-25T04:17:28.239Z,11.16
2022-11-25T04:19:54.646Z,11.10
2022-11-25T04:22:21.064Z,11.25
2022-11-25T04:24:47.556Z,11.18
2022-11-25T04:27:14.126Z,11.28
2022-11-25T04:29:40.663Z,11.33
2022-11-25T04:32:07.344Z,11.28
2022-11-25T04:34:34.093Z,11.19
2022-11-25T04:37:00.862Z,11.16
2022-11-25T04:39:27.276Z,11.13
2022-11-25T04:42:13.669Z,11.23
2022-11-25T04:44:40.084Z,11.31
2022-11-25T04:47:06.615Z,11.15
2022-11-25T04:49:33.097Z,11.20
2022-11-25T04:51:59.623Z,11.25
2022-11-25T04:54:26.099Z,11.26
2022-11-25T04:56:52.509Z,11.52
2022-11-25T04:59:37.565Z,11.51
2022-11-25T05:02:04.131Z,11.46
2022-11-25T05:04:30.747Z,11.59
2022-11-25T05:06:57.202Z,11.59
2022-11-25T05:09:23.586Z,11.67
2022-11-25T05:11:50.123Z,11.71
2022-11-25T05:14:16.681Z,11.80
2022-11-25T05:16:43.129Z,11.79
2022-11-25T05:19:09.589Z,11.72
2022-11-25T05:21:36.122Z,11.74
2022-11-25T05:24:02.642Z,11.76
2022-11-25T05:26:29.024Z,11.82
2022-11-25T05:28:55.469Z,11.71
2022-11-25T05:31:21.921Z,11.66
2022-11-25T05:33:48.413Z,11.54
2022-11-25T05:36:14.790Z,11.58
2022-11-25T05:38:41.213Z,11.70
2022-11-25T05:41:08.022Z,11.65
2022-11-25T05:43:35.202Z,11.70
2022-11-25T05:46:07.665Z,11.79
2022-11-25T05:48:34.085Z,11.69
2022-11-25T05:51:04.256Z,11.87
2022-11-25T05:53:31.195Z,11.86
2022-11-25T05:55:59.659Z,11.84
2022-11-25T05:58:26.612Z,11.98
2022-11-25T06:00:53.058Z,11.94
2022-11-25T06:03:19.583Z,11.93
2022-11-25T06:05:46.156Z,11.95
2022-11-25T06:08:12.692Z,11.67
2022-11-25T06:10:42.972Z,11.79
2022-11-25T06:13:09.711Z,11.92
2022-11-25T06:15:41.439Z,11.96
2022-11-25T06:18:08.607Z,12.00
2022-11-25T06:20:35.163Z,11.95
2022-11-25T06:23:01.584Z,11.84
2022-11-25T06:25:28.828Z,11.95
2022-11-25T06:28:12.466Z,11.68
2022-11-25T06:30:39.720Z,11.84
2022-11-25T06:33:06.147Z,11.72
2022-11-25T06:35:32.538Z,11.63
2022-11-25T06:37:59.567Z,11.74
2022-11-25T06:40:26.080Z,11.87
2022-11-25T06:42:52.657Z,11.86
2022-11-25T06:45:19.060Z,11.85
2022-11-25T06:47:45.735Z,11.97
2022-11-25T06:50:12.355Z,11.90
2022-11-25T06:52:38.799Z,11.92
2022-11-25T06:55:05.558Z,11.98
2022-11-25T06:57:32.024Z,11.90
2022-11-25T06:59:58.476Z,12.15
2022-11-25T07:02:24.976Z,12.05
2022-11-25T07:04:51.418Z,12.09
2022-11-25T07:07:17.875Z,11.81
2022-11-25T07:09:44.332Z,11.94
2022-11-25T07:12:12.369Z,11.88
2022-11-25T07:14:39.053Z,11.82
2022-11-25T07:17:10.467Z,12.06
2022-11-25T07:19:38.572Z,11.91
2022-11-25T07:22:05.036Z,11.89
2022-11-25T07:24:31.536Z,11.98
2022-11-25T07:26:58.014Z,12.03
2022-11-25T07:32:11.198Z,12.02
2022-11-25T07:34:38.202Z,12.10
2022-11-25T07:37:04.637Z,12.05
2022-11-25T07:39:31.115Z,12.15
2022-11-25T07:41:57.605Z,12.09
2022-11-25T07:44:24.063Z,12.21
2022-11-25T07:46:51.470Z,12.25
2022-11-25T07:49:20.680Z,12.26
2022-11-25T07:51:53.707Z,12.13
2022-11-25T07:54:21.719Z,12.32
2022-11-25T07:56:49.705Z,12.21
2022-11-25T07:59:19.102Z,12.44
2022-11-25T08:01:45.900Z,12.77
2022-11-25T08:04:19.498Z,12.57
2022-11-25T08:06:47.702Z,12.57
2022-11-25T08:09:20.527Z,12.69
2022-11-25T08:11:47.319Z,12.69
2022-11-25T08:14:14.733Z,12.84
2022-11-25T08:16:41.182Z,13.07
2022-11-25T08:19:11.400Z,12.89
2022-11-25T08:21:38.018Z,12.83
2022-11-25T08:24:05.331Z,12.98
2022-11-25T08:26:36.227Z,13.06
2022-11-25T08:29:04.037Z,13.04
2022-11-25T08:31:33.405Z,13.12
2022-11-25T08:34:00.479Z,13.23
2022-11-25T08:36:28.976Z,13.33
2022-11-25T08:38:59.796Z,13.28
2022-11-25T08:41:29.665Z,13.45
2022-11-25T08:43:57.536Z,13.34
2022-11-25T08:46:27.899Z,13.45
2022-11-25T08:48:55.120Z,13.52
2022-11-25T08:51:25.683Z,13.50
2022-11-25T08:53:52.238Z,13.54
2022-11-25T08:56:25.492Z,13.60
2022-11-25T08:58:52.666Z,13.54
2022-11-25T09:01:20.342Z,13.45
2022-11-25T09:03:49.178Z,13.36
2022-11-25T09:06:15.810Z,13.43
2022-11-25T09:08:43.516Z,13.59
2022-11-25T09:11:10.972Z,13.70
2022-11-25T09:13:37.781Z,13.58
2022-11-25T09:16:04.683Z,13.78
2022-11-25T09:18:32.483Z,13.78
2022-11-25T09:20:59.330Z,13.68
2022-11-25T09:23:26.440Z,13.84
2022-11-25T09:25:54.703Z,13.93
2022-11-25T09:28:21.893Z,13.78
2022-11-25T09:30:48.725Z,13.86
2022-11-25T09:33:15.403Z,13.96
2022-11-25T09:35:42.273Z,13.94
2022-11-25T09:38:08.664Z,14.01
2022-11-25T09:40:55.628Z,13.99
2022-11-25T09:43:53.506Z,14.04
2022-11-25T09:46:46.079Z,14.15
2022-11-25T09:49:28.271Z,14.15
2022-11-25T09:51:57.671Z,14.12
2022-11-25T09:54:34.912Z,14.10
2022-11-25T09:57:38.541Z,14.20
2022-11-25T10:00:38.960Z,14.15
2022-11-25T10:03:25.388Z,14.17
2022-11-25T10:06:00.873Z,14.16
2022-11-25T10:08:31.100Z,14.15
2022-11-25T10:11:17.524Z,14.27
2022-11-25T10:13:55.259Z,14.50
2022-11-25T10:16:30.376Z,14.37
2022-11-25T10:19:13.830Z,14.40
2022-11-25T10:21:40.221Z,14.58
2022-11-25T10:24:12.902Z,14.63
2022-11-25T10:26:44.125Z,14.62
2022-11-25T10:29:13.611Z,14.66
2022-11-25T10:31:42.326Z,14.82
2022-11-25T10:34:24.128Z,14.80
2022-11-25T10:36:51.786Z,14.86
2022-11-25T10:39:24.566Z,14.79
2022-11-25T10:41:57.034Z,14.90
2022-11-25T10:44:25.065Z,14.95
2022-11-25T10:47:20.013Z,14.95
2022-11-25T10:50:00.917Z,15.02
2022-11-25T10:52:30.640Z,14.82
2022-11-25T10:55:09.526Z,14.92
2022-11-25T10:57:36.123Z,14.94
2022-11-25T11:00:05.753Z,14.97
2022-11-25T11:02:41.711Z,14.99
2022-11-25T11:05:08.071Z,15.03
2022-11-25T11:07:38.512Z,14.99
2022-11-25T11:10:25.390Z,15.00
2022-11-25T11:12:59.076Z,15.23
2022-11-25T11:15:28.942Z,15.48
2022-11-25T11:17:57.011Z,15.59
2022-11-25T11:20:30.244Z,15.64
2022-11-25T11:22:58.311Z,15.74
2022-11-25T11:25:30.544Z,15.81
2022-11-25T11:27:57.545Z,15.87
2022-11-25T11:30:27.116Z,16.02
2022-11-25T11:33:01.338Z,16.03
2022-11-25T11:35:50.487Z,16.23
2022-11-25T11:38:38.183Z,16.40
2022-11-25T11:41:21.606Z,16.61
2022-11-25T11:44:17.390Z,16.81
2022-11-25T11:46:59.417Z,17.04
2022-11-25T11:49:45.533Z,17.08
2022-11-25T11:52:30.723Z,17.09
2022-11-25T11:55:17.954Z,17.30
2022-11-25T11:58:14.801Z,17.22
2022-11-25T12:01:05.987Z,17.13
2022-11-25T12:03:38.952Z,16.97
2022-11-25T12:06:06.462Z,16.98
2022-11-25T12:08:46.968Z,16.99
2022-11-25T12:11:36.076Z,16.98
2022-11-25T12:14:31.746Z,17.05
2022-11-25T12:17:01.293Z,17.26
2022-11-25T12:19:33.627Z,17.28
2022-11-25T12:22:20.589Z,17.32
2022-11-25T12:24:54.151Z,17.07
2022-11-25T12:27:28.076Z,17.23
2022-11-25T12:30:22.506Z,17.02
2022-11-25T12:33:07.201Z,17.14
2022-11-25T12:35:37.377Z,17.00
2022-11-25T12:38:12.992Z,17.03
2022-11-25T12:40:54.480Z,16.91
2022-11-25T12:43:40.488Z,16.79
2022-11-25T12:46:16.186Z,16.83
2022-11-25T12:48:43.302Z,16.75
2022-11-25T12:51:17.091Z,16.72
2022-11-25T12:54:04.133Z,16.79
2022-11-25T12:57:14.638Z,16.83
2022-11-25T13:00:24.964Z,16.97
2022-11-25T13:03:21.850Z,16.98
2022-11-25T13:06:10.644Z,16.92
2022-11-25T13:08:49.214Z,16.61
2022-11-25T13:11:34.184Z,16.67
2022-11-25T13:14:13.202Z,16.82
2022-11-25T13:16:41.656Z,16.86
2022-11-25T13:19:09.406Z,16.90
2022-11-25T13:21:35.859Z,16.85
2022-11-25T13:24:03.315Z,16.77
2022-11-25T13:26:29.785Z,16.87
2022-11-25T13:28:56.916Z,16.85
2022-11-25T13:31:34.815Z,16.75
2022-11-25T13:34:29.529Z,16.68
2022-11-25T13:36:58.044Z,16.62
2022-11-25T13:39:24.378Z,16.57
2022-11-25T13:42:12.830Z,16.39
2022-11-25T13:44:56.911Z,16.58
2022-11-25T13:47:38.749Z,16.73
2022-11-25T13:50:21.978Z,16.64
2022-11-25T13:52:57.573Z,16.33
2022-11-25T13:55:41.605Z,16.39
2022-11-25T13:58:10.929Z,16.28
2022-11-25T14:00:37.300Z,16.28
2022-11-25T14:03:19.137Z,16.29
2022-11-25T14:06:12.347Z,16.08
2022-11-25T14:08:53.985Z,15.72
2022-11-25T14:11:42.144Z,15.69
2022-11-25T14:14:48.056Z,15.49
2022-11-25T14:17:15.947Z,15.27
2022-11-25T14:19:54.619Z,15.09
2022-11-25T14:22:39.931Z,15.04
2022-11-25T14:25:27.586Z,15.09
2022-11-25T14:28:04.867Z,15.04
2022-11-25T14:30:32.706Z,15.23
2022-11-25T14:33:03.209Z,15.18
2022-11-25T14:35:40.324Z,15.08
2022-11-25T14:38:19.609Z,15.15
2022-11-25T14:41:00.630Z,15.13
2022-11-25T14:43:28.506Z,14.96
2022-11-25T14:46:20.710Z,14.95
2022-11-25T14:48:54.085Z,14.97
2022-11-25T14:51:20.957Z,14.82
2022-11-25T14:53:48.901Z,14.64
2022-11-25T14:56:26.086Z,14.50
2022-11-25T14:58:54.464Z,14.47
2022-11-25T15:01:29.041Z,14.27
2022-11-25T15:04:15.978Z,14.20
2022-11-25T15:06:47.421Z,14.19
2022-11-25T15:09:20.327Z,14.14
2022-11-25T15:11:47.028Z,13.93
2022-11-25T15:14:28.611Z,13.81
2022-11-25T15:16:56.345Z,14.14
2022-11-25T15:19:30.598Z,14.27
2022-11-25T15:24:54.673Z,14.32
2022-11-25T15:27:28.470Z,14.39
2022-11-25T15:29:56.300Z,14.45
2022-11-25T15:32:25.962Z,14.38
2022-11-25T15:34:53.647Z,14.38
2022-11-25T15:37:20.204Z,14.44
2022-11-25T15:39:49.453Z,14.29
2022-11-25T15:42:26.600Z,14.24
2022-11-25T15:44:55.109Z,14.40
2022-11-25T15:47:32.063Z,14.21
2022-11-25T15:50:13.401Z,14.18
2022-11-25T15:52:40.579Z,14.23
2022-11-25T15:55:08.418Z,14.15
2022-11-25T15:57:36.342Z,14.10
2022-11-25T16:00:16.620Z,13.94
2022-11-25T16:02:43.017Z,14.25
2022-11-25T16:05:12.216Z,14.29
2022-11-25T16:07:54.830Z,14.08
2022-11-25T16:10:31.611Z,14.13
2022-11-25T16:13:21.782Z,14.14
2022-11-25T16:15:52.799Z,14.14
2022-11-25T16:21:17.682Z,14.30
2022-11-25T16:23:46.292Z,14.10
2022-11-25T16:26:12.654Z,13.98
2022-11-25T16:28:49.664Z,14.13
2022-11-25T16:31:20.092Z,14.18
2022-11-25T16:33:46.643Z,14.20
2022-11-25T16:36:13.446Z,14.30
2022-11-25T16:38:39.852Z,14.30
2022-11-25T16:41:14.652Z,14.21
2022-11-25T16:43:41.089Z,14.09
2022-11-25T16:46:07.747Z,14.19
2022-11-25T16:48:34.445Z,14.16
2022-11-25T16:51:01.035Z,14.22
2022-11-25T16:53:27.716Z,14.06
2022-11-25T16:55:54.215Z,13.92
2022-11-25T16:58:24.418Z,14.03
2022-11-25T17:00:53.138Z,14.06
2022-11-25T17:03:20.765Z,14.15
2022-11-25T17:05:47.954Z,14.07
2022-11-25T17:08:15.135Z,13.85
2022-11-25T17:10:43.361Z,13.90
2022-11-25T17:13:17.628Z,13.81
2022-11-25T17:15:44.232Z,13.61
2022-11-25T17:18:12.406Z,13.63
2022-11-25T17:20:38.985Z,13.55
2022-11-25T17:23:11.696Z,13.51
2022-11-25T17:25:38.110Z,13.54
2022-11-25T17:28:04.815Z,13.77
2022-11-25T17:30:32.432Z,13.53
2022-11-25T17:33:04.275Z,13.83
2022-11-25T17:35:30.753Z,13.83
2022-11-25T17:38:00.668Z,13.96
2022-11-25T17:40:27.203Z,13.70
2022-11-25T17:42:53.729Z,13.93
2022-11-25T17:45:21.735Z,13.89
2022-11-25T17:47:48.498Z,13.91
2022-11-25T17:50:14.902Z,13.97
2022-11-25T17:52:41.346Z,13.87
2022-11-25T17:55:08.140Z,13.90
2022-11-25T17:57:34.671Z,13.97
2022-11-25T18:00:01.556Z,14.04
2022-11-25T18:02:28.289Z,13.95
2022-11-25T18:04:55.198Z,13.83
2022-11-25T18:07:21.821Z,13.60
2022-11-25T18:09:48.378Z,13.78
2022-11-25T18:12:27.813Z,13.59
2022-11-25T18:14:55.290Z,13.59
2022-11-25T18:17:21.801Z,13.49
2022-11-25T18:19:54.544Z,13.39
2022-11-25T18:22:24.043Z,13.51
2022-11-25T18:24:50.811Z,13.40
2022-11-25T18:27:32.025Z,13.66
2022-11-25T18:29:58.899Z,13.78
2022-11-25T18:32:25.570Z,13.86
2022-11-25T18:34:52.328Z,13.97
2022-11-25T18:37:18.724Z,14.01
2022-11-25T18:39:45.128Z,14.05
2022-11-25T18:42:24.811Z,14.28
2022-11-25T18:44:51.433Z,14.35
2022-11-25T18:47:17.970Z,14.37
2022-11-25T18:49:44.347Z,14.42
2022-11-25T18:52:10.756Z,14.46
2022-11-25T18:54:37.375Z,14.50
2022-11-25T18:57:04.170Z,14.52
2022-11-25T18:59:33.795Z,14.26
2022-11-25T19:02:00.300Z,14.28
2022-11-25T19:04:26.894Z,14.31
2022-11-25T19:06:53.371Z,14.43
2022-11-25T19:09:19.764Z,14.35
2022-11-25T19:11:49.788Z,14.22
2022-11-25T19:14:29.889Z,14.28
2022-11-25T19:17:02.318Z,13.81
2022-11-25T19:19:28.754Z,14.14
2022-11-25T19:21:55.172Z,14.09
2022-11-25T19:24:21.643Z,14.00
2022-11-25T19:26:50.771Z,14.04
2022-11-25T19:29:20.068Z,13.72
2022-11-25T19:31:47.234Z,13.87
2022-11-25T19:34:24.830Z,13.76
2022-11-25T19:36:51.387Z,13.99
2022-11-25T19:39:18.616Z,14.26
2022-11-25T19:41:45.373Z,14.31
2022-11-25T19:44:11.843Z,14.48
2022-11-25T19:47:12.985Z,14.54
2022-11-25T19:49:28.456Z,14.31
2022-11-25T19:51:55.775Z,13.96
2022-11-25T19:54:22.182Z,13.91
2022-11-25T19:56:49.247Z,13.66
2022-11-25T19:59:15.803Z,13.51
2022-11-25T20:01:43.824Z,13.30
2022-11-25T20:04:16.916Z,13.40
2022-11-25T20:06:43.484Z,13.37
2022-11-25T20:09:13.072Z,13.44
2022-11-25T20:11:39.651Z,13.53
2022-11-25T20:14:06.169Z,13.40
2022-11-25T20:16:39.659Z,13.45
2022-11-25T20:19:07.615Z,13.41
2022-11-25T20:21:37.020Z,13.34
2022-11-25T20:24:04.990Z,13.08
2022-11-25T20:26:37.082Z,13.06
2022-11-25T20:29:14.986Z,12.99
2022-11-25T20:31:41.552Z,12.84
2022-11-25T20:34:08.058Z,12.56
2022-11-25T20:36:34.643Z,12.55
2022-11-25T20:39:01.996Z,12.52
2022-11-25T20:41:29.073Z,12.45
2022-11-25T20:43:56.626Z,12.42
2022-11-25T20:46:26.185Z,12.46
2022-11-25T20:48:55.974Z,12.36
2022-11-25T20:51:23.297Z,12.35
2022-11-25T20:53:52.363Z,12.44
2022-11-25T20:56:21.203Z,12.46
2022-11-25T20:58:48.057Z,12.78
2022-11-25T21:01:15.494Z,12.64
2022-11-25T21:03:42.915Z,12.38
2022-11-25T21:06:30.019Z,12.24
2022-11-25T21:09:01.282Z,12.10
2022-11-25T21:11:28.211Z,11.93
2022-11-25T21:13:54.660Z,11.78
2022-11-25T21:16:21.214Z,11.75
2022-11-25T21:18:47.676Z,11.67
2022-11-25T21:21:16.754Z,11.68
2022-11-25T21:23:44.211Z,11.66
2022-11-25T21:26:17.924Z,11.46
2022-11-25T21:28:45.859Z,11.48
2022-11-25T21:31:21.926Z,11.38
2022-11-25T21:33:49.294Z,11.29
2022-11-25T21:36:21.834Z,11.40
2022-11-25T21:38:50.373Z,11.32
2022-11-25T21:41:17.203Z,11.38
2022-11-25T21:43:45.725Z,11.34
2022-11-25T21:46:14.724Z,11.35
2022-11-25T21:48:41.428Z,11.24
2022-11-25T21:51:10.638Z,11.20
2022-11-25T21:53:37.566Z,11.13
2022-11-25T21:56:06.327Z,11.25
2022-11-25T21:58:32.860Z,11.15
2022-11-25T22:01:01.221Z,11.01
2022-11-25T22:03:30.283Z,10.98
2022-11-25T22:05:56.762Z,10.93
2022-11-25T22:08:23.876Z,11.12
2022-11-25T22:10:51.701Z,10.99
2022-11-25T22:13:21.405Z,11.06
2022-11-25T22:15:51.556Z,11.09
2022-11-25T22:18:22.232Z,11.16
2022-11-25T22:20:53.299Z,11.03
2022-11-25T22:23:20.761Z,11.08
2022-11-25T22:25:48.306Z,11.08
2022-11-25T22:28:15.725Z,11.00
2022-11-25T22:30:46.473Z,10.84
2022-11-25T22:33:13.896Z,10.85
2022-11-25T22:35:40.437Z,10.79
2022-11-25T22:38:13.991Z,10.58
2022-11-25T22:40:42.415Z,10.57
2022-11-25T22:43:16.213Z,10.65
2022-11-25T22:45:42.692Z,10.67
2022-11-25T22:48:15.756Z,10.60
2022-11-25T22:50:43.252Z,10.71
2022-11-25T22:53:14.648Z,10.57
2022-11-25T22:55:41.470Z,10.52
2022-11-25T22:58:08.173Z,10.36
2022-11-25T23:00:38.335Z,10.59
2022-11-25T23:03:06.905Z,10.63
2022-11-25T23:05:35.683Z,10.61
2022-11-25T23:08:10.416Z,10.61
2022-11-25T23:10:36.803Z,10.64
2022-11-25T23:13:03.238Z,10.53
2022-11-25T23:15:29.993Z,10.50
2022-11-25T23:18:01.618Z,10.29
2022-11-25T23:20:29.252Z,10.42
2022-11-25T23:22:56.313Z,10.32
2022-11-25T23:25:23.381Z,10.26
2022-11-25T23:27:50.138Z,10.47
2022-11-25T23:30:21.598Z,10.41
2022-11-25T23:32:52.560Z,10.36
2022-11-25T23:35:21.160Z,10.25
2022-11-25T23:37:55.090Z,10.18
2022-11-25T23:40:22.648Z,10.12
2022-11-25T23:42:49.509Z,10.08
2022-11-25T23:45:19.358Z,10.10
2022-11-25T23:47:48.496Z,10.14
2022-11-25T23:50:18.599Z,10.05
2022-11-25T23:52:45.095Z,10.26
2022-11-25T23:55:19.571Z,10.19
2022-11-25T23:57:47.404Z,10.14
